Главная страница
METAR-TAF:

METAR-TAF

Аэропорты :

Турсбю, Швеция

широта: 60-09-17N, долгота: 12-59-40E, высота над уровнем моря: 120 м

Текущие метеонаблюдения

Эта сводка был подготовлена 26 минут назад, в 12:50 UTC
Ветер 3 Узел от восточно-юго-восточный, изменяющийся между восточный и юго-восточный
Температура -1°C
Влажность 100%
Давление 1020 hPa
Видимость: 8000 м
дымка

METAR: ESST 191250Z AUTO 11003KT 080V140 8000 BR FEW010/// OVC039/// M01/M01 Q1020

Время: 14:16 (13:16 UTC)


TAF: отсутствует

Метеонаблюдения и прогнозы для более 4000 аэропортов (сводки METAR и TAF).

Имеющиеся станции представлены на карте желтыми и красными точками.

Чтобы увидеть название станции, наведите на нее мышь.

Затем щелкните, чтобы увидеть метеонаблюдения и метеопрогнозы.

Управление картой: чтобы увеличить масштаб, щелкните зеленые кнопки с черным крестиком; чтобы уменьшить масштаб, щелкните зеленую кнопку с тире; для просмотра соседних карт щелкайте зеленые стрелки.


METAR-TAF: